createdAt,value
2022-10-01T00:00:14.678Z,97263.75
2022-10-01T00:03:03.274Z,97297.91
2022-10-01T00:06:02.038Z,97316.66
2022-10-01T00:08:51.806Z,97305.31
2022-10-01T00:11:40.611Z,97312.50
2022-10-01T00:14:29.642Z,97301.81
2022-10-01T00:17:18.215Z,97313.38
2022-10-01T00:20:14.169Z,97319.19
2022-10-01T00:23:04.478Z,97297.41
2022-10-01T00:25:53.558Z,97314.41
2022-10-01T00:28:43.060Z,97277.97
2022-10-01T00:31:32.451Z,97284.88
2022-10-01T00:34:21.225Z,97320.97
2022-10-01T00:37:10.475Z,97324.47
2022-10-01T00:40:00.431Z,97321.75
2022-10-01T00:42:49.859Z,97302.09
2022-10-01T00:45:38.888Z,97299.53
2022-10-01T00:48:30.403Z,97274.59
2022-10-01T00:51:19.374Z,97288.16
2022-10-01T00:54:11.998Z,97273.97
2022-10-01T00:57:04.057Z,97183.94
2022-10-01T00:59:55.695Z,97290.59
2022-10-01T01:02:44.321Z,97291.84
2022-10-01T01:05:33.284Z,97304.69
2022-10-01T01:08:22.078Z,97288.16
2022-10-01T01:11:23.834Z,97284.31
2022-10-01T01:14:20.145Z,97246.88
2022-10-01T01:17:14.044Z,97295.41
2022-10-01T01:20:19.095Z,97256.91
2022-10-01T01:23:24.894Z,97258.81
2022-10-01T01:26:28.825Z,97238.13
2022-10-01T01:29:25.015Z,97213.28
2022-10-01T01:32:18.120Z,97252.00
2022-10-01T01:35:10.306Z,97261.41
2022-10-01T01:38:04.265Z,97250.28
2022-10-01T01:40:55.944Z,97187.34
2022-10-01T01:43:47.096Z,97229.38
2022-10-01T01:46:40.317Z,97241.53
2022-10-01T01:49:30.021Z,97224.84
2022-10-01T01:52:19.256Z,97235.09
2022-10-01T01:55:08.914Z,97237.75
2022-10-01T01:57:58.582Z,97207.25
2022-10-01T02:00:52.547Z,97117.09
2022-10-01T02:03:42.479Z,97230.59
2022-10-01T02:06:43.029Z,97252.84
2022-10-01T02:09:35.890Z,97259.81
2022-10-01T02:12:32.454Z,97224.59
2022-10-01T02:15:27.668Z,97243.84
2022-10-01T02:18:29.744Z,97256.63
2022-10-01T02:21:23.325Z,97193.97
2022-10-01T02:24:22.726Z,97235.38
2022-10-01T02:27:16.873Z,97256.53
2022-10-01T02:30:08.583Z,97223.75
2022-10-01T02:32:59.860Z,97276.75
2022-10-01T02:35:50.129Z,97230.50
2022-10-01T02:38:43.364Z,97200.88
2022-10-01T02:41:36.526Z,97262.50
2022-10-01T02:44:31.323Z,97261.69
2022-10-01T02:47:24.304Z,97202.59
2022-10-01T02:50:14.296Z,97260.00
2022-10-01T02:53:08.363Z,97120.69
2022-10-01T02:56:00.533Z,97253.03
2022-10-01T02:58:48.025Z,97202.19
2022-10-01T03:01:37.186Z,97245.22
2022-10-01T03:04:26.085Z,97264.84
2022-10-01T03:07:14.574Z,97265.06
2022-10-01T03:10:03.722Z,97268.00
2022-10-01T03:12:53.618Z,97271.69
2022-10-01T03:15:42.321Z,97270.25
2022-10-01T03:18:30.828Z,97270.53
2022-10-01T03:21:19.719Z,97189.66
2022-10-01T03:24:08.444Z,97266.13
2022-10-01T03:26:57.785Z,97274.34
2022-10-01T03:29:48.343Z,97274.34
2022-10-01T03:32:36.953Z,97274.44
2022-10-01T03:35:25.452Z,97260.63
2022-10-01T03:38:14.190Z,97263.16
2022-10-01T03:41:02.716Z,97285.47
2022-10-01T03:43:51.483Z,97300.22
2022-10-01T03:46:41.425Z,97279.94
2022-10-01T03:49:30.265Z,97245.59
2022-10-01T03:52:19.215Z,97251.22
2022-10-01T03:55:08.905Z,97272.31
2022-10-01T03:57:58.746Z,97291.94
2022-10-01T04:00:48.875Z,97287.66
2022-10-01T04:03:38.776Z,97283.25
2022-10-01T04:06:27.418Z,97277.63
2022-10-01T04:09:15.936Z,97264.59
2022-10-01T04:12:05.095Z,97281.03
2022-10-01T04:14:53.592Z,97285.25
2022-10-01T04:17:45.824Z,97230.41
2022-10-01T04:20:37.695Z,97286.03
2022-10-01T04:23:26.398Z,97280.88
2022-10-01T04:26:14.905Z,97242.78
2022-10-01T04:29:03.394Z,97283.66
2022-10-01T04:31:53.561Z,97273.13
2022-10-01T04:34:54.125Z,97270.44
2022-10-01T04:37:43.954Z,97254.13
2022-10-01T04:40:34.343Z,97279.19
2022-10-01T04:43:22.893Z,97284.75
2022-10-01T04:46:11.516Z,97279.56
2022-10-01T04:49:00.004Z,97262.47
2022-10-01T04:51:48.694Z,97274.31
2022-10-01T04:54:38.648Z,97281.34
2022-10-01T04:57:27.223Z,97288.81
2022-10-01T05:00:19.748Z,97282.03
2022-10-01T05:03:08.256Z,97270.75
2022-10-01T05:05:56.775Z,97257.22
2022-10-01T05:08:45.274Z,97276.09
2022-10-01T05:11:36.016Z,97273.47
2022-10-01T05:14:26.966Z,97270.25
2022-10-01T05:17:18.350Z,97282.47
2022-10-01T05:20:09.803Z,97302.88
2022-10-01T05:22:58.257Z,97302.56
2022-10-01T05:25:47.555Z,97262.81
2022-10-01T05:28:38.561Z,97239.59
2022-10-01T05:31:27.206Z,97295.91
2022-10-01T05:34:16.890Z,97300.03
2022-10-01T05:37:05.929Z,97302.59
2022-10-01T05:39:54.447Z,97303.34
2022-10-01T05:42:47.105Z,97257.22
2022-10-01T05:45:37.070Z,97311.16
2022-10-01T05:48:25.599Z,97308.00
2022-10-01T05:51:16.272Z,97310.19
2022-10-01T05:54:05.026Z,97303.78
2022-10-01T05:56:53.714Z,97306.94
2022-10-01T05:59:42.283Z,97299.44
2022-10-01T06:02:32.217Z,97300.44
2022-10-01T06:05:21.264Z,97253.69
2022-10-01T06:08:10.879Z,97305.63
2022-10-01T06:11:03.513Z,97305.53
2022-10-01T06:13:52.957Z,97300.22
2022-10-01T06:16:41.593Z,97280.97
2022-10-01T06:19:31.562Z,97284.28
2022-10-01T06:22:20.105Z,97279.03
2022-10-01T06:25:09.598Z,97286.00
2022-10-01T06:28:00.291Z,97281.47
2022-10-01T06:30:49.884Z,97283.53
2022-10-01T06:33:38.952Z,97287.03
2022-10-01T06:36:28.853Z,97272.44
2022-10-01T06:39:17.418Z,97279.19
2022-10-01T06:42:05.948Z,97273.28
2022-10-01T06:44:54.466Z,97278.97
2022-10-01T06:47:43.113Z,97270.00
2022-10-01T06:50:32.526Z,97264.66
2022-10-01T06:53:22.421Z,97271.66
2022-10-01T06:56:11.126Z,97238.28
2022-10-01T06:58:59.574Z,97271.44
2022-10-01T07:01:55.523Z,97272.28
2022-10-01T07:04:44.809Z,97250.72
2022-10-01T07:07:35.238Z,97235.41
2022-10-01T07:10:25.549Z,97264.66
2022-10-01T07:13:16.621Z,97272.84
2022-10-01T07:16:05.352Z,97272.63
2022-10-01T07:18:53.982Z,97268.38
2022-10-01T07:21:42.667Z,97235.69
2022-10-01T07:24:31.224Z,97276.91
2022-10-01T07:27:21.345Z,97275.19
2022-10-01T07:30:10.755Z,97279.59
2022-10-01T07:32:59.748Z,97270.00
2022-10-01T07:35:48.505Z,97294.13
2022-10-01T07:38:36.966Z,97293.28
2022-10-01T07:41:27.415Z,97279.47
2022-10-01T07:44:17.406Z,97293.38
2022-10-01T07:47:06.042Z,97277.44
2022-10-01T07:49:54.596Z,97297.03
2022-10-01T07:52:43.155Z,97298.56
2022-10-01T07:55:32.955Z,97284.78
2022-10-01T07:58:24.151Z,97300.38
2022-10-01T08:01:14.389Z,97305.28
2022-10-01T08:04:24.033Z,97297.91
2022-10-01T08:07:12.559Z,97268.56
2022-10-01T08:10:01.143Z,97294.81
2022-10-01T08:12:49.612Z,97283.47
2022-10-01T08:15:38.188Z,97291.75
2022-10-01T08:18:28.157Z,97268.22
2022-10-01T08:21:18.184Z,97289.47
2022-10-01T08:24:07.295Z,97273.75
2022-10-01T08:26:57.753Z,97154.69
2022-10-01T08:29:46.327Z,97289.13
2022-10-01T08:32:34.867Z,97291.50
2022-10-01T08:35:25.284Z,97279.16
2022-10-01T08:38:14.093Z,97283.75
2022-10-01T08:41:11.039Z,97287.00
2022-10-01T08:44:02.894Z,97226.81
2022-10-01T08:46:53.214Z,97273.22
2022-10-01T08:49:47.612Z,97269.34
2022-10-01T08:52:43.309Z,97286.56
2022-10-01T08:55:36.663Z,97292.19
2022-10-01T08:58:30.553Z,97294.13
2022-10-01T09:01:21.597Z,97289.41
2022-10-01T09:04:11.065Z,97293.53
2022-10-01T09:07:12.789Z,97284.66
2022-10-01T09:10:17.177Z,97280.56
2022-10-01T09:13:29.403Z,97113.78
2022-10-01T09:16:25.542Z,97288.59
2022-10-01T09:19:36.124Z,97276.59
2022-10-01T09:22:35.771Z,97271.34
2022-10-01T09:25:27.355Z,97247.38
2022-10-01T09:28:18.000Z,97260.75
2022-10-01T09:31:16.632Z,97241.84
2022-10-01T09:34:12.570Z,97258.03
2022-10-01T09:37:14.937Z,97210.94
2022-10-01T09:40:14.928Z,97235.25
2022-10-01T09:43:06.786Z,97242.53
2022-10-01T09:45:55.628Z,97264.59
2022-10-01T09:48:50.764Z,97235.81
2022-10-01T09:51:44.191Z,97253.13
2022-10-01T09:54:37.849Z,97104.81
2022-10-01T09:57:31.606Z,97249.63
2022-10-01T10:00:23.229Z,97219.38
2022-10-01T10:03:11.847Z,97237.28
2022-10-01T10:06:01.963Z,97251.78
2022-10-01T10:08:51.270Z,97237.47
2022-10-01T10:11:43.063Z,97242.63
2022-10-01T10:14:35.159Z,97254.22
2022-10-01T10:17:25.525Z,97245.56
2022-10-01T10:20:24.793Z,97247.50
2022-10-01T10:23:17.514Z,97162.53
2022-10-01T10:26:08.040Z,97256.09
2022-10-01T10:28:57.652Z,97244.47
2022-10-01T10:31:47.259Z,97245.44
2022-10-01T10:34:39.632Z,97247.69
2022-10-01T10:37:31.291Z,97242.00
2022-10-01T10:40:27.069Z,97240.09
2022-10-01T10:43:22.820Z,97240.09
2022-10-01T10:46:12.092Z,97226.03
2022-10-01T10:49:05.970Z,97230.63
2022-10-01T10:51:57.278Z,97229.59
2022-10-01T10:54:49.267Z,97211.53
2022-10-01T10:57:37.997Z,97207.81
2022-10-01T11:00:27.581Z,97214.13
2022-10-01T11:03:19.194Z,97217.28
2022-10-01T11:06:12.705Z,97211.81
2022-10-01T11:09:07.464Z,97210.66
2022-10-01T11:12:05.365Z,97191.53
2022-10-01T11:15:11.296Z,97196.53
2022-10-01T11:18:18.833Z,97184.16
2022-10-01T11:21:34.559Z,97175.72
2022-10-01T11:24:43.687Z,97173.47
2022-10-01T11:27:38.877Z,97167.44
2022-10-01T11:30:34.414Z,97132.69
2022-10-01T11:33:30.867Z,97161.44
2022-10-01T11:36:26.748Z,97159.78
2022-10-01T11:39:16.889Z,97150.09
2022-10-01T11:42:12.836Z,97154.09
2022-10-01T11:45:07.413Z,97148.97
2022-10-01T11:47:58.934Z,97146.84
2022-10-01T11:50:49.805Z,97059.91
2022-10-01T11:53:44.871Z,97145.44
2022-10-01T11:56:55.203Z,97129.84
2022-10-01T11:59:51.465Z,97142.13
2022-10-01T12:02:49.936Z,97127.44
2022-10-01T12:05:39.109Z,97133.81
2022-10-01T12:08:33.154Z,97132.72
2022-10-01T12:11:29.470Z,97129.72
2022-10-01T12:14:22.116Z,97130.00
2022-10-01T12:17:19.829Z,97122.31
2022-10-01T12:20:19.227Z,97120.84
2022-10-01T12:23:12.404Z,97113.59
2022-10-01T12:26:08.034Z,97040.31
2022-10-01T12:29:04.026Z,97092.25
2022-10-01T12:32:03.204Z,97077.81
2022-10-01T12:35:04.270Z,97056.97
2022-10-01T12:38:04.728Z,97066.34
2022-10-01T12:41:04.009Z,97067.81
2022-10-01T12:44:04.984Z,97045.19
2022-10-01T12:47:08.248Z,97040.00
2022-10-01T12:50:12.337Z,97045.53
2022-10-01T12:53:20.625Z,97047.44
2022-10-01T12:56:17.641Z,97048.25
2022-10-01T12:59:33.260Z,97044.50
2022-10-01T13:02:46.154Z,97049.81
2022-10-01T13:05:44.621Z,97041.31
2022-10-01T13:08:49.906Z,97045.38
2022-10-01T13:11:53.755Z,97031.91
2022-10-01T13:14:44.685Z,97045.50
2022-10-01T13:17:42.404Z,97045.00
2022-10-01T13:20:41.371Z,97046.91
2022-10-01T13:23:36.175Z,97044.03
2022-10-01T13:26:31.699Z,97025.25
2022-10-01T13:29:37.545Z,97036.03
2022-10-01T13:32:29.383Z,97034.56
2022-10-01T13:35:31.569Z,97030.69
2022-10-01T13:38:31.496Z,97008.00
2022-10-01T13:41:23.325Z,97019.25
2022-10-01T13:44:26.793Z,97011.91
2022-10-01T13:47:20.816Z,97025.53
2022-10-01T13:50:21.923Z,97024.97
2022-10-01T13:53:18.677Z,97026.19
2022-10-01T13:56:13.046Z,97007.50
2022-10-01T13:59:01.625Z,97045.75
2022-10-01T14:01:50.259Z,97042.03
2022-10-01T14:04:41.475Z,97041.66
2022-10-01T14:07:34.904Z,97031.81
2022-10-01T14:10:31.215Z,97018.47
2022-10-01T14:13:38.301Z,97023.56
2022-10-01T14:16:27.320Z,97025.34
2022-10-01T14:19:20.992Z,97035.44
2022-10-01T14:22:22.544Z,97033.84
2022-10-01T14:25:27.547Z,97042.84
2022-10-01T14:28:39.859Z,96955.19
2022-10-01T14:31:40.214Z,96980.13
2022-10-01T14:34:47.963Z,97017.91
2022-10-01T14:37:40.135Z,97026.28
2022-10-01T14:40:38.044Z,97000.50
2022-10-01T14:43:29.601Z,96991.03
2022-10-01T14:46:19.796Z,97020.44
2022-10-01T14:49:21.226Z,97011.97
2022-10-01T14:52:20.799Z,97001.66
2022-10-01T14:55:14.855Z,97007.16
2022-10-01T14:58:05.267Z,96931.47
2022-10-01T15:00:57.125Z,96988.47
2022-10-01T15:03:46.820Z,97008.41
2022-10-01T15:06:43.475Z,96995.47
2022-10-01T15:09:34.981Z,97009.25
2022-10-01T15:12:24.915Z,97015.16
2022-10-01T15:15:20.050Z,97018.19
2022-10-01T15:18:15.807Z,97028.41
2022-10-01T15:21:07.086Z,97019.66
2022-10-01T15:23:55.984Z,97024.41
2022-10-01T15:26:47.610Z,97022.03
2022-10-01T15:29:36.164Z,97031.34
2022-10-01T15:32:25.570Z,97035.81
2022-10-01T15:35:18.873Z,97046.41
2022-10-01T15:38:07.464Z,97044.09
2022-10-01T15:41:13.980Z,96998.50
2022-10-01T15:44:07.717Z,96931.38
2022-10-01T15:46:56.229Z,97035.72
2022-10-01T15:50:02.927Z,97041.97
2022-10-01T15:53:03.583Z,97026.56
2022-10-01T15:55:54.500Z,97049.28
2022-10-01T15:58:48.616Z,97074.13
2022-10-01T16:01:41.690Z,97075.72
2022-10-01T16:04:30.308Z,97047.97
2022-10-01T16:07:22.630Z,97076.84
2022-10-01T16:10:18.084Z,97070.25
2022-10-01T16:13:30.308Z,97067.81
2022-10-01T16:16:25.772Z,97075.19
2022-10-01T16:19:24.699Z,97085.56
2022-10-01T16:22:22.335Z,97082.56
2022-10-01T16:25:32.756Z,96983.16
2022-10-01T16:28:28.688Z,97091.25
2022-10-01T16:31:17.328Z,97078.53
2022-10-01T16:34:13.154Z,97090.91
2022-10-01T16:37:01.614Z,97100.91
2022-10-01T16:39:50.147Z,97099.78
2022-10-01T16:42:40.285Z,96909.91
2022-10-01T16:45:34.710Z,97088.56
2022-10-01T16:48:23.555Z,97095.19
2022-10-01T16:51:12.498Z,97095.44
2022-10-01T16:54:02.176Z,97104.03
2022-10-01T16:56:52.135Z,97106.22
2022-10-01T16:59:42.316Z,97103.81
2022-10-01T17:02:30.949Z,97109.25
2022-10-01T17:05:22.510Z,96990.44
2022-10-01T17:08:12.214Z,97122.50
2022-10-01T17:11:03.205Z,97129.34
2022-10-01T17:13:52.347Z,97131.63
2022-10-01T17:16:42.580Z,97139.91
2022-10-01T17:19:31.157Z,97128.78
2022-10-01T17:22:19.752Z,96993.41
2022-10-01T17:25:09.574Z,97093.78
2022-10-01T17:27:58.207Z,97161.84
2022-10-01T17:30:48.177Z,97131.28
2022-10-01T17:33:39.137Z,97125.91
2022-10-01T17:36:27.878Z,97177.28
2022-10-01T17:39:16.436Z,97187.00
2022-10-01T17:42:05.104Z,97190.34
2022-10-01T17:44:54.819Z,97196.03
2022-10-01T17:47:46.907Z,97205.84
2022-10-01T17:50:43.894Z,97211.34
2022-10-01T17:53:39.648Z,97218.94
2022-10-01T17:56:33.077Z,97223.47
2022-10-01T17:59:21.887Z,97223.59
2022-10-01T18:02:36.576Z,97228.78
2022-10-01T18:05:21.163Z,97232.09
2022-10-01T18:08:11.076Z,97235.06
2022-10-01T18:11:07.586Z,97227.72
2022-10-01T18:13:56.180Z,97214.41
2022-10-01T18:16:44.754Z,97230.69
2022-10-01T18:22:41.996Z,97238.91
2022-10-01T18:25:31.899Z,97245.31
2022-10-01T18:28:20.655Z,97250.91
2022-10-01T18:31:18.849Z,97253.75
2022-10-01T18:34:16.872Z,97252.13
2022-10-01T18:37:07.815Z,97263.00
2022-10-01T18:40:01.116Z,97242.03
2022-10-01T18:42:56.611Z,97277.25
2022-10-01T18:45:58.343Z,97265.63
2022-10-01T18:49:00.923Z,97282.56
2022-10-01T18:52:06.292Z,97287.09
2022-10-01T18:55:21.521Z,97287.09
2022-10-01T18:58:28.165Z,97301.09
2022-10-01T19:01:27.979Z,97283.03
2022-10-01T19:04:34.034Z,97299.97
2022-10-01T19:07:44.025Z,97284.50
2022-10-01T19:10:40.659Z,97299.59
2022-10-01T19:13:40.064Z,97311.63
2022-10-01T19:16:45.570Z,97277.53
2022-10-01T19:19:43.004Z,97320.25
2022-10-01T19:22:46.375Z,97321.47
2022-10-01T19:25:41.425Z,97318.91
2022-10-01T19:28:43.045Z,97315.25
2022-10-01T19:31:41.780Z,97311.00
2022-10-01T19:34:35.723Z,97311.66
2022-10-01T19:37:32.152Z,97332.44
2022-10-01T19:40:30.438Z,97318.63
2022-10-01T19:43:23.699Z,97327.94
2022-10-01T19:46:20.757Z,97280.69
2022-10-01T19:49:17.459Z,97324.31
2022-10-01T19:52:13.421Z,97298.03
2022-10-01T19:55:02.066Z,97322.59
2022-10-01T19:57:50.676Z,97372.97
2022-10-01T20:00:39.469Z,97293.22
2022-10-01T20:03:38.252Z,97332.81
2022-10-01T20:06:31.872Z,97335.00
2022-10-01T20:09:28.819Z,97344.78
2022-10-01T20:12:26.353Z,97342.25
2022-10-01T20:15:23.697Z,97291.38
2022-10-01T20:18:27.950Z,97351.03
2022-10-01T20:21:31.814Z,97347.97
2022-10-01T20:24:43.095Z,97346.03
2022-10-01T20:27:48.475Z,97346.00
2022-10-01T20:30:50.163Z,97346.47
2022-10-01T20:33:48.285Z,97350.53
2022-10-01T20:36:44.008Z,97348.09
2022-10-01T20:39:35.606Z,97362.66
2022-10-01T20:42:33.752Z,97298.75
2022-10-01T20:45:25.843Z,97365.50
2022-10-01T20:48:20.304Z,97371.59
2022-10-01T20:51:15.834Z,97369.81
2022-10-01T20:54:11.574Z,97291.69
2022-10-01T20:57:07.106Z,97378.16
2022-10-01T20:59:58.045Z,97337.25
2022-10-01T21:02:52.583Z,97331.31
2022-10-01T21:05:43.797Z,97159.84
2022-10-01T21:08:45.256Z,97375.16
2022-10-01T21:11:40.708Z,97373.63
2022-10-01T21:14:35.778Z,97378.75
2022-10-01T21:17:36.228Z,97307.94
2022-10-01T21:20:49.001Z,97392.16
2022-10-01T21:23:51.410Z,97391.22
2022-10-01T21:26:53.346Z,97392.19
2022-10-01T21:30:09.345Z,97380.03
2022-10-01T21:33:15.998Z,97396.75
2022-10-01T21:36:11.454Z,97404.56
2022-10-01T21:39:07.285Z,97412.47
2022-10-01T21:42:06.384Z,97342.72
2022-10-01T21:45:07.874Z,97426.50
2022-10-01T21:48:07.967Z,97424.13
2022-10-01T21:51:03.323Z,97423.19
2022-10-01T21:54:13.123Z,97418.78
2022-10-01T21:57:20.286Z,97412.22
2022-10-01T22:00:20.076Z,97446.78
2022-10-01T22:03:16.488Z,97303.34
2022-10-01T22:06:13.114Z,97431.50
2022-10-01T22:09:09.304Z,97445.53
2022-10-01T22:12:01.545Z,97450.03
2022-10-01T22:14:54.003Z,97454.53
2022-10-01T22:17:43.094Z,97409.25
2022-10-01T22:20:35.613Z,97465.31
2022-10-01T22:23:24.425Z,97478.00
2022-10-01T22:26:17.524Z,97479.09
2022-10-01T22:29:12.355Z,97470.59
2022-10-01T22:32:06.073Z,97457.38
2022-10-01T22:35:00.317Z,97439.59
2022-10-01T22:37:53.984Z,97461.06
2022-10-01T22:40:48.026Z,97473.91
2022-10-01T22:43:36.639Z,97486.31
2022-10-01T22:46:55.759Z,97507.41
2022-10-01T22:49:58.425Z,97507.66
2022-10-01T22:53:01.128Z,97508.03
2022-10-01T22:55:55.164Z,97514.22
2022-10-01T22:59:03.623Z,97511.81
2022-10-01T23:02:03.948Z,97497.38
2022-10-01T23:05:04.857Z,97517.63
2022-10-01T23:08:05.195Z,97517.28
2022-10-01T23:11:04.498Z,97535.59
2022-10-01T23:14:01.777Z,97529.78
2022-10-01T23:16:57.811Z,97529.16
2022-10-01T23:19:59.194Z,97529.00
2022-10-01T23:23:03.296Z,97523.84
2022-10-01T23:26:12.541Z,97521.84
2022-10-01T23:29:32.279Z,97519.22
2022-10-01T23:32:38.515Z,97528.09
2022-10-01T23:35:42.792Z,97542.84
2022-10-01T23:38:47.394Z,97544.91
2022-10-01T23:41:40.997Z,97555.53
2022-10-01T23:44:37.145Z,97564.44
2022-10-01T23:47:34.545Z,97440.78
2022-10-01T23:50:28.462Z,97579.34
2022-10-01T23:53:22.745Z,97590.94
2022-10-01T23:56:35.968Z,97568.72
2022-10-01T23:59:30.085Z,97595.47
